sensor_id;sensor_type;location;lat;lon;timestamp;P1;durP1;ratioP1;P2;durP2;ratioP2
59858;SDS011;45734;53.648;9.566;2023-02-26T00:01:11;0.10;;;0.10;;
59858;SDS011;45734;53.648;9.566;2023-02-26T00:06:13;0.10;;;0.10;;
59858;SDS011;45734;53.648;9.566;2023-02-26T00:11:13;0.10;;;0.10;;
59858;SDS011;45734;53.648;9.566;2023-02-26T00:16:21;0.10;;;0.10;;
59858;SDS011;45734;53.648;9.566;2023-02-26T00:21:27;0.08;;;0.08;;
59858;SDS011;45734;53.648;9.566;2023-02-26T00:26:28;0.10;;;0.10;;
59858;SDS011;45734;53.648;9.566;2023-02-26T00:31:30;0.15;;;0.15;;
59858;SDS011;45734;53.648;9.566;2023-02-26T00:42:01;0.10;;;0.10;;
59858;SDS011;45734;53.648;9.566;2023-02-26T00:47:09;0.08;;;0.08;;
59858;SDS011;45734;53.648;9.566;2023-02-26T00:52:26;0.10;;;0.10;;
59858;SDS011;45734;53.648;9.566;2023-02-26T00:57:35;0.10;;;0.10;;
59858;SDS011;45734;53.648;9.566;2023-02-26T01:02:36;0.10;;;0.10;;
59858;SDS011;45734;53.648;9.566;2023-02-26T01:13:16;0.10;;;0.10;;
59858;SDS011;45734;53.648;9.566;2023-02-26T01:18:18;0.13;;;0.13;;
59858;SDS011;45734;53.648;9.566;2023-02-26T01:23:25;0.10;;;0.10;;
59858;SDS011;45734;53.648;9.566;2023-02-26T01:28:27;0.10;;;0.10;;
59858;SDS011;45734;53.648;9.566;2023-02-26T01:33:29;0.10;;;0.10;;
59858;SDS011;45734;53.648;9.566;2023-02-26T01:38:51;0.10;;;0.10;;
59858;SDS011;45734;53.648;9.566;2023-02-26T01:48:55;0.10;;;0.10;;
59858;SDS011;45734;53.648;9.566;2023-02-26T01:53:56;0.10;;;0.10;;
59858;SDS011;45734;53.648;9.566;2023-02-26T01:58:57;0.10;;;0.10;;
59858;SDS011;45734;53.648;9.566;2023-02-26T02:03:58;0.10;;;0.10;;
59858;SDS011;45734;53.648;9.566;2023-02-26T02:08:59;0.10;;;0.10;;
59858;SDS011;45734;53.648;9.566;2023-02-26T02:14:11;0.00;;;0.00;;
59858;SDS011;45734;53.648;9.566;2023-02-26T02:19:37;0.10;;;0.10;;
59858;SDS011;45734;53.648;9.566;2023-02-26T02:25:03;0.10;;;0.10;;
59858;SDS011;45734;53.648;9.566;2023-02-26T02:35:43;0.10;;;0.10;;
59858;SDS011;45734;53.648;9.566;2023-02-26T02:40:50;0.00;;;0.00;;
59858;SDS011;45734;53.648;9.566;2023-02-26T02:46:05;0.10;;;0.10;;
59858;SDS011;45734;53.648;9.566;2023-02-26T02:51:10;0.17;;;0.17;;
59858;SDS011;45734;53.648;9.566;2023-02-26T03:01:14;0.05;;;0.05;;
59858;SDS011;45734;53.648;9.566;2023-02-26T03:06:17;0.15;;;0.15;;
59858;SDS011;45734;53.648;9.566;2023-02-26T03:11:17;0.10;;;0.10;;
59858;SDS011;45734;53.648;9.566;2023-02-26T03:16:25;0.10;;;0.10;;
59858;SDS011;45734;53.648;9.566;2023-02-26T03:26:57;0.10;;;0.10;;
59858;SDS011;45734;53.648;9.566;2023-02-26T03:32:05;0.10;;;0.10;;
59858;SDS011;45734;53.648;9.566;2023-02-26T03:37:18;0.10;;;0.10;;
59858;SDS011;45734;53.648;9.566;2023-02-26T03:42:27;0.10;;;0.10;;
59858;SDS011;45734;53.648;9.566;2023-02-26T03:47:32;0.10;;;0.10;;
59858;SDS011;45734;53.648;9.566;2023-02-26T03:52:35;0.10;;;0.10;;
59858;SDS011;45734;53.648;9.566;2023-02-26T04:02:41;0.10;;;0.10;;
59858;SDS011;45734;53.648;9.566;2023-02-26T04:07:47;0.15;;;0.15;;
59858;SDS011;45734;53.648;9.566;2023-02-26T04:12:48;0.10;;;0.10;;
59858;SDS011;45734;53.648;9.566;2023-02-26T04:17:49;0.10;;;0.10;;
59858;SDS011;45734;53.648;9.566;2023-02-26T04:22:49;0.10;;;0.10;;
59858;SDS011;45734;53.648;9.566;2023-02-26T04:27:50;0.10;;;0.10;;
59858;SDS011;45734;53.648;9.566;2023-02-26T04:32:50;0.10;;;0.10;;
59858;SDS011;45734;53.648;9.566;2023-02-26T04:37:50;0.10;;;0.10;;
59858;SDS011;45734;53.648;9.566;2023-02-26T04:42:51;0.10;;;0.10;;
59858;SDS011;45734;53.648;9.566;2023-02-26T04:47:51;0.10;;;0.10;;
59858;SDS011;45734;53.648;9.566;2023-02-26T04:52:51;0.00;;;0.00;;
59858;SDS011;45734;53.648;9.566;2023-02-26T04:57:52;0.10;;;0.10;;
59858;SDS011;45734;53.648;9.566;2023-02-26T05:02:52;0.10;;;0.10;;
59858;SDS011;45734;53.648;9.566;2023-02-26T05:07:52;0.10;;;0.10;;
59858;SDS011;45734;53.648;9.566;2023-02-26T05:12:55;0.10;;;0.10;;
59858;SDS011;45734;53.648;9.566;2023-02-26T05:17:55;0.17;;;0.17;;
59858;SDS011;45734;53.648;9.566;2023-02-26T05:23:01;0.10;;;0.10;;
59858;SDS011;45734;53.648;9.566;2023-02-26T05:28:06;0.20;;;0.20;;
59858;SDS011;45734;53.648;9.566;2023-02-26T05:33:06;0.10;;;0.10;;
59858;SDS011;45734;53.648;9.566;2023-02-26T05:38:06;0.20;;;0.20;;
59858;SDS011;45734;53.648;9.566;2023-02-26T05:43:06;0.15;;;0.15;;
59858;SDS011;45734;53.648;9.566;2023-02-26T05:48:07;0.10;;;0.10;;
59858;SDS011;45734;53.648;9.566;2023-02-26T05:53:10;0.20;;;0.20;;
59858;SDS011;45734;53.648;9.566;2023-02-26T05:58:10;0.13;;;0.13;;
59858;SDS011;45734;53.648;9.566;2023-02-26T06:03:11;0.10;;;0.10;;
59858;SDS011;45734;53.648;9.566;2023-02-26T06:08:11;0.10;;;0.10;;
59858;SDS011;45734;53.648;9.566;2023-02-26T06:13:14;0.13;;;0.13;;
59858;SDS011;45734;53.648;9.566;2023-02-26T06:18:14;0.20;;;0.20;;
59858;SDS011;45734;53.648;9.566;2023-02-26T06:23:15;0.20;;;0.20;;
59858;SDS011;45734;53.648;9.566;2023-02-26T06:28:15;0.20;;;0.20;;
59858;SDS011;45734;53.648;9.566;2023-02-26T06:33:15;0.10;;;0.10;;
59858;SDS011;45734;53.648;9.566;2023-02-26T06:38:15;0.20;;;0.20;;
59858;SDS011;45734;53.648;9.566;2023-02-26T06:43:16;0.20;;;0.20;;
59858;SDS011;45734;53.648;9.566;2023-02-26T06:48:16;0.07;;;0.07;;
59858;SDS011;45734;53.648;9.566;2023-02-26T06:53:17;0.10;;;0.10;;
59858;SDS011;45734;53.648;9.566;2023-02-26T06:58:18;0.03;;;0.03;;
59858;SDS011;45734;53.648;9.566;2023-02-26T07:03:19;0.00;;;0.00;;
59858;SDS011;45734;53.648;9.566;2023-02-26T07:08:20;0.00;;;0.00;;
59858;SDS011;45734;53.648;9.566;2023-02-26T07:13:21;0.00;;;0.00;;
59858;SDS011;45734;53.648;9.566;2023-02-26T07:18:21;0.10;;;0.10;;
59858;SDS011;45734;53.648;9.566;2023-02-26T07:23:22;0.00;;;0.00;;
59858;SDS011;45734;53.648;9.566;2023-02-26T07:28:22;0.00;;;0.00;;
59858;SDS011;45734;53.648;9.566;2023-02-26T07:33:23;0.00;;;0.00;;
59858;SDS011;45734;53.648;9.566;2023-02-26T07:38:25;0.00;;;0.00;;
59858;SDS011;45734;53.648;9.566;2023-02-26T07:43:25;0.00;;;0.00;;
59858;SDS011;45734;53.648;9.566;2023-02-26T07:48:26;0.00;;;0.00;;
59858;SDS011;45734;53.648;9.566;2023-02-26T07:53:26;0.00;;;0.00;;
59858;SDS011;45734;53.648;9.566;2023-02-26T07:58:26;0.08;;;0.08;;
59858;SDS011;45734;53.648;9.566;2023-02-26T08:03:27;0.00;;;0.00;;
59858;SDS011;45734;53.648;9.566;2023-02-26T08:08:27;0.10;;;0.10;;
59858;SDS011;45734;53.648;9.566;2023-02-26T08:13:28;0.00;;;0.00;;
59858;SDS011;45734;53.648;9.566;2023-02-26T08:18:28;0.00;;;0.00;;
59858;SDS011;45734;53.648;9.566;2023-02-26T08:23:28;0.00;;;0.00;;
59858;SDS011;45734;53.648;9.566;2023-02-26T08:28:29;0.10;;;0.10;;
59858;SDS011;45734;53.648;9.566;2023-02-26T08:33:29;0.00;;;0.00;;
59858;SDS011;45734;53.648;9.566;2023-02-26T08:38:30;0.00;;;0.00;;
59858;SDS011;45734;53.648;9.566;2023-02-26T08:43:31;0.00;;;0.00;;
59858;SDS011;45734;53.648;9.566;2023-02-26T08:48:31;0.10;;;0.10;;
59858;SDS011;45734;53.648;9.566;2023-02-26T08:53:31;0.10;;;0.10;;
59858;SDS011;45734;53.648;9.566;2023-02-26T08:58:32;0.10;;;0.10;;
59858;SDS011;45734;53.648;9.566;2023-02-26T09:03:32;0.10;;;0.10;;
59858;SDS011;45734;53.648;9.566;2023-02-26T09:08:33;0.00;;;0.00;;
59858;SDS011;45734;53.648;9.566;2023-02-26T09:13:33;0.00;;;0.00;;
59858;SDS011;45734;53.648;9.566;2023-02-26T09:18:33;0.05;;;0.05;;
59858;SDS011;45734;53.648;9.566;2023-02-26T09:23:34;0.00;;;0.00;;
59858;SDS011;45734;53.648;9.566;2023-02-26T09:28:34;0.00;;;0.00;;
59858;SDS011;45734;53.648;9.566;2023-02-26T09:33:34;0.00;;;0.00;;
59858;SDS011;45734;53.648;9.566;2023-02-26T09:38:35;0.00;;;0.00;;
59858;SDS011;45734;53.648;9.566;2023-02-26T09:48:48;0.00;;;0.00;;
59858;SDS011;45734;53.648;9.566;2023-02-26T09:53:51;0.00;;;0.00;;
59858;SDS011;45734;53.648;9.566;2023-02-26T09:58:52;0.00;;;0.00;;
59858;SDS011;45734;53.648;9.566;2023-02-26T10:09:39;0.00;;;0.00;;
59858;SDS011;45734;53.648;9.566;2023-02-26T10:25:28;0.00;;;0.00;;
59858;SDS011;45734;53.648;9.566;2023-02-26T10:30:58;0.00;;;0.00;;
59858;SDS011;45734;53.648;9.566;2023-02-26T10:36:13;0.00;;;0.00;;
59858;SDS011;45734;53.648;9.566;2023-02-26T10:41:17;0.00;;;0.00;;
59858;SDS011;45734;53.648;9.566;2023-02-26T10:51:34;0.00;;;0.00;;
59858;SDS011;45734;53.648;9.566;2023-02-26T10:56:36;0.00;;;0.00;;
59858;SDS011;45734;53.648;9.566;2023-02-26T11:01:37;0.00;;;0.00;;
59858;SDS011;45734;53.648;9.566;2023-02-26T11:06:43;0.00;;;0.00;;
59858;SDS011;45734;53.648;9.566;2023-02-26T11:11:50;0.00;;;0.00;;
59858;SDS011;45734;53.648;9.566;2023-02-26T11:16:53;0.00;;;0.00;;
59858;SDS011;45734;53.648;9.566;2023-02-26T11:21:56;0.00;;;0.00;;
59858;SDS011;45734;53.648;9.566;2023-02-26T11:26:58;0.00;;;0.00;;
59858;SDS011;45734;53.648;9.566;2023-02-26T11:32:03;0.00;;;0.00;;
59858;SDS011;45734;53.648;9.566;2023-02-26T11:37:04;0.00;;;0.00;;
59858;SDS011;45734;53.648;9.566;2023-02-26T11:42:05;0.00;;;0.00;;
59858;SDS011;45734;53.648;9.566;2023-02-26T11:47:10;0.00;;;0.00;;
59858;SDS011;45734;53.648;9.566;2023-02-26T11:52:17;0.00;;;0.00;;
59858;SDS011;45734;53.648;9.566;2023-02-26T11:57:28;0.00;;;0.00;;
59858;SDS011;45734;53.648;9.566;2023-02-26T12:02:32;0.00;;;0.00;;
59858;SDS011;45734;53.648;9.566;2023-02-26T12:07:37;0.00;;;0.00;;
59858;SDS011;45734;53.648;9.566;2023-02-26T12:12:53;0.00;;;0.00;;
59858;SDS011;45734;53.648;9.566;2023-02-26T12:23:36;0.00;;;0.00;;
59858;SDS011;45734;53.648;9.566;2023-02-26T12:34:15;0.00;;;0.00;;
59858;SDS011;45734;53.648;9.566;2023-02-26T12:39:39;0.00;;;0.00;;
59858;SDS011;45734;53.648;9.566;2023-02-26T12:45:11;0.00;;;0.00;;
59858;SDS011;45734;53.648;9.566;2023-02-26T12:50:18;0.00;;;0.00;;
59858;SDS011;45734;53.648;9.566;2023-02-26T12:55:50;0.00;;;0.00;;
59858;SDS011;45734;53.648;9.566;2023-02-26T13:01:19;0.00;;;0.00;;
59858;SDS011;45734;53.648;9.566;2023-02-26T13:27:13;0.00;;;0.00;;
59858;SDS011;45734;53.648;9.566;2023-02-26T13:32:17;0.00;;;0.00;;
59858;SDS011;45734;53.648;9.566;2023-02-26T13:42:28;0.00;;;0.00;;
59858;SDS011;45734;53.648;9.566;2023-02-26T13:58:41;0.00;;;0.00;;
59858;SDS011;45734;53.648;9.566;2023-02-26T14:03:48;0.00;;;0.00;;
59858;SDS011;45734;53.648;9.566;2023-02-26T14:08:52;0.00;;;0.00;;
59858;SDS011;45734;53.648;9.566;2023-02-26T14:14:10;0.00;;;0.00;;
59858;SDS011;45734;53.648;9.566;2023-02-26T14:30:28;0.00;;;0.00;;
59858;SDS011;45734;53.648;9.566;2023-02-26T14:35:34;0.00;;;0.00;;
59858;SDS011;45734;53.648;9.566;2023-02-26T14:40:41;0.00;;;0.00;;
59858;SDS011;45734;53.648;9.566;2023-02-26T14:45:46;0.00;;;0.00;;
59858;SDS011;45734;53.648;9.566;2023-02-26T15:06:57;0.00;;;0.00;;
59858;SDS011;45734;53.648;9.566;2023-02-26T15:12:24;0.00;;;0.00;;
59858;SDS011;45734;53.648;9.566;2023-02-26T15:17:47;0.00;;;0.00;;
59858;SDS011;45734;53.648;9.566;2023-02-26T15:28:30;0.00;;;0.00;;
59858;SDS011;45734;53.648;9.566;2023-02-26T15:33:35;0.00;;;0.00;;
59858;SDS011;45734;53.648;9.566;2023-02-26T15:38:40;0.00;;;0.00;;
59858;SDS011;45734;53.648;9.566;2023-02-26T15:43:49;0.00;;;0.00;;
59858;SDS011;45734;53.648;9.566;2023-02-26T15:48:59;0.00;;;0.00;;
59858;SDS011;45734;53.648;9.566;2023-02-26T15:54:04;0.00;;;0.00;;
59858;SDS011;45734;53.648;9.566;2023-02-26T15:59:07;0.00;;;0.00;;
59858;SDS011;45734;53.648;9.566;2023-02-26T16:04:14;0.00;;;0.00;;
59858;SDS011;45734;53.648;9.566;2023-02-26T16:09:18;0.00;;;0.00;;
59858;SDS011;45734;53.648;9.566;2023-02-26T16:14:30;0.00;;;0.00;;
59858;SDS011;45734;53.648;9.566;2023-02-26T16:19:35;0.00;;;0.00;;
59858;SDS011;45734;53.648;9.566;2023-02-26T16:24:40;0.00;;;0.00;;
59858;SDS011;45734;53.648;9.566;2023-02-26T16:29:45;0.00;;;0.00;;
59858;SDS011;45734;53.648;9.566;2023-02-26T16:34:51;0.00;;;0.00;;
59858;SDS011;45734;53.648;9.566;2023-02-26T16:40:37;0.00;;;0.00;;
59858;SDS011;45734;53.648;9.566;2023-02-26T16:50:35;0.00;;;0.00;;
59858;SDS011;45734;53.648;9.566;2023-02-26T16:55:36;0.00;;;0.00;;
59858;SDS011;45734;53.648;9.566;2023-02-26T17:00:38;0.00;;;0.00;;
59858;SDS011;45734;53.648;9.566;2023-02-26T17:06:02;0.00;;;0.00;;
59858;SDS011;45734;53.648;9.566;2023-02-26T17:11:06;0.00;;;0.00;;
59858;SDS011;45734;53.648;9.566;2023-02-26T17:16:10;0.00;;;0.00;;
59858;SDS011;45734;53.648;9.566;2023-02-26T17:21:11;0.00;;;0.00;;
59858;SDS011;45734;53.648;9.566;2023-02-26T17:26:12;0.00;;;0.00;;
59858;SDS011;45734;53.648;9.566;2023-02-26T17:31:12;0.00;;;0.00;;
59858;SDS011;45734;53.648;9.566;2023-02-26T17:36:14;0.00;;;0.00;;
59858;SDS011;45734;53.648;9.566;2023-02-26T17:46:19;0.00;;;0.00;;
59858;SDS011;45734;53.648;9.566;2023-02-26T17:51:20;0.00;;;0.00;;
59858;SDS011;45734;53.648;9.566;2023-02-26T17:56:21;0.00;;;0.00;;
59858;SDS011;45734;53.648;9.566;2023-02-26T18:01:23;0.00;;;0.00;;
59858;SDS011;45734;53.648;9.566;2023-02-26T18:06:28;0.00;;;0.00;;
59858;SDS011;45734;53.648;9.566;2023-02-26T18:11:33;0.00;;;0.00;;
59858;SDS011;45734;53.648;9.566;2023-02-26T18:16:35;0.00;;;0.00;;
59858;SDS011;45734;53.648;9.566;2023-02-26T18:21:38;0.00;;;0.00;;
59858;SDS011;45734;53.648;9.566;2023-02-26T18:26:38;0.00;;;0.00;;
59858;SDS011;45734;53.648;9.566;2023-02-26T18:31:39;0.00;;;0.00;;
59858;SDS011;45734;53.648;9.566;2023-02-26T18:36:39;0.00;;;0.00;;
59858;SDS011;45734;53.648;9.566;2023-02-26T18:41:40;0.00;;;0.00;;
59858;SDS011;45734;53.648;9.566;2023-02-26T18:46:40;0.00;;;0.00;;
59858;SDS011;45734;53.648;9.566;2023-02-26T18:51:41;0.00;;;0.00;;
59858;SDS011;45734;53.648;9.566;2023-02-26T18:56:41;0.10;;;0.10;;
59858;SDS011;45734;53.648;9.566;2023-02-26T19:01:42;0.00;;;0.00;;
59858;SDS011;45734;53.648;9.566;2023-02-26T19:06:42;0.00;;;0.00;;
59858;SDS011;45734;53.648;9.566;2023-02-26T19:11:43;0.03;;;0.03;;
59858;SDS011;45734;53.648;9.566;2023-02-26T19:16:44;0.10;;;0.10;;
59858;SDS011;45734;53.648;9.566;2023-02-26T19:21:44;0.10;;;0.10;;
59858;SDS011;45734;53.648;9.566;2023-02-26T19:26:44;0.10;;;0.10;;
59858;SDS011;45734;53.648;9.566;2023-02-26T19:31:45;0.10;;;0.10;;
59858;SDS011;45734;53.648;9.566;2023-02-26T19:36:46;0.10;;;0.10;;
59858;SDS011;45734;53.648;9.566;2023-02-26T19:41:49;0.10;;;0.10;;
59858;SDS011;45734;53.648;9.566;2023-02-26T19:46:52;0.10;;;0.10;;
59858;SDS011;45734;53.648;9.566;2023-02-26T19:51:53;0.00;;;0.00;;
59858;SDS011;45734;53.648;9.566;2023-02-26T19:56:53;0.10;;;0.10;;
59858;SDS011;45734;53.648;9.566;2023-02-26T20:01:54;0.00;;;0.00;;
59858;SDS011;45734;53.648;9.566;2023-02-26T20:06:54;0.10;;;0.10;;
59858;SDS011;45734;53.648;9.566;2023-02-26T20:11:54;0.00;;;0.00;;
59858;SDS011;45734;53.648;9.566;2023-02-26T20:16:54;0.10;;;0.10;;
59858;SDS011;45734;53.648;9.566;2023-02-26T20:21:55;0.00;;;0.00;;
59858;SDS011;45734;53.648;9.566;2023-02-26T20:26:55;0.00;;;0.00;;
59858;SDS011;45734;53.648;9.566;2023-02-26T20:31:55;0.10;;;0.10;;
59858;SDS011;45734;53.648;9.566;2023-02-26T20:36:57;0.10;;;0.10;;
59858;SDS011;45734;53.648;9.566;2023-02-26T20:41:58;0.10;;;0.10;;
59858;SDS011;45734;53.648;9.566;2023-02-26T20:46:58;0.00;;;0.00;;
59858;SDS011;45734;53.648;9.566;2023-02-26T20:52:01;0.10;;;0.10;;
59858;SDS011;45734;53.648;9.566;2023-02-26T20:57:01;0.10;;;0.10;;
59858;SDS011;45734;53.648;9.566;2023-02-26T21:02:02;0.10;;;0.10;;
59858;SDS011;45734;53.648;9.566;2023-02-26T21:07:03;0.08;;;0.08;;
59858;SDS011;45734;53.648;9.566;2023-02-26T21:12:18;0.10;;;0.10;;
59858;SDS011;45734;53.648;9.566;2023-02-26T21:17:18;0.10;;;0.10;;
59858;SDS011;45734;53.648;9.566;2023-02-26T21:22:19;0.13;;;0.13;;
59858;SDS011;45734;53.648;9.566;2023-02-26T21:27:20;0.10;;;0.10;;
59858;SDS011;45734;53.648;9.566;2023-02-26T21:32:20;0.08;;;0.08;;
59858;SDS011;45734;53.648;9.566;2023-02-26T21:37:21;0.10;;;0.10;;
59858;SDS011;45734;53.648;9.566;2023-02-26T21:42:21;0.10;;;0.10;;
59858;SDS011;45734;53.648;9.566;2023-02-26T21:47:21;0.10;;;0.10;;
59858;SDS011;45734;53.648;9.566;2023-02-26T21:52:21;0.10;;;0.10;;
59858;SDS011;45734;53.648;9.566;2023-02-26T21:57:23;0.10;;;0.10;;
59858;SDS011;45734;53.648;9.566;2023-02-26T22:02:24;0.00;;;0.00;;
59858;SDS011;45734;53.648;9.566;2023-02-26T22:07:24;0.10;;;0.10;;
59858;SDS011;45734;53.648;9.566;2023-02-26T22:12:25;0.10;;;0.10;;
59858;SDS011;45734;53.648;9.566;2023-02-26T22:17:25;0.20;;;0.20;;
59858;SDS011;45734;53.648;9.566;2023-02-26T22:22:25;0.05;;;0.05;;
59858;SDS011;45734;53.648;9.566;2023-02-26T22:27:26;0.20;;;0.20;;
59858;SDS011;45734;53.648;9.566;2023-02-26T22:32:27;0.10;;;0.10;;
59858;SDS011;45734;53.648;9.566;2023-02-26T22:37:27;0.03;;;0.03;;
59858;SDS011;45734;53.648;9.566;2023-02-26T22:42:27;0.10;;;0.10;;
59858;SDS011;45734;53.648;9.566;2023-02-26T22:47:28;0.10;;;0.10;;
59858;SDS011;45734;53.648;9.566;2023-02-26T22:52:28;0.10;;;0.10;;
59858;SDS011;45734;53.648;9.566;2023-02-26T22:57:28;0.08;;;0.08;;
59858;SDS011;45734;53.648;9.566;2023-02-26T23:02:29;0.10;;;0.10;;
59858;SDS011;45734;53.648;9.566;2023-02-26T23:07:29;0.17;;;0.17;;
59858;SDS011;45734;53.648;9.566;2023-02-26T23:12:29;0.10;;;0.10;;
59858;SDS011;45734;53.648;9.566;2023-02-26T23:17:30;0.10;;;0.10;;
59858;SDS011;45734;53.648;9.566;2023-02-26T23:22:30;0.10;;;0.10;;
59858;SDS011;45734;53.648;9.566;2023-02-26T23:27:30;0.10;;;0.10;;
59858;SDS011;45734;53.648;9.566;2023-02-26T23:32:31;0.10;;;0.10;;
59858;SDS011;45734;53.648;9.566;2023-02-26T23:37:31;0.10;;;0.10;;
59858;SDS011;45734;53.648;9.566;2023-02-26T23:42:32;0.10;;;0.10;;
59858;SDS011;45734;53.648;9.566;2023-02-26T23:47:32;0.10;;;0.10;;
59858;SDS011;45734;53.648;9.566;2023-02-26T23:52:33;0.10;;;0.10;;
59858;SDS011;45734;53.648;9.566;2023-02-26T23:57:33;0.10;;;0.10;;
